sensor_id;sensor_type;location;lat;lon;timestamp;P1;durP1;ratioP1;P2;durP2;ratioP2
61915;SDS011;47868;51.326;6.550;2023-06-24T00:01:49;8.63;;;7.82;;
61915;SDS011;47868;51.326;6.550;2023-06-24T00:04:15;10.63;;;8.02;;
61915;SDS011;47868;51.326;6.550;2023-06-24T00:06:44;14.23;;;9.68;;
61915;SDS011;47868;51.326;6.550;2023-06-24T00:09:10;10.15;;;9.20;;
61915;SDS011;47868;51.326;6.550;2023-06-24T00:11:36;9.65;;;7.72;;
61915;SDS011;47868;51.326;6.550;2023-06-24T00:14:02;9.18;;;8.23;;
61915;SDS011;47868;51.326;6.550;2023-06-24T00:16:28;10.35;;;9.00;;
61915;SDS011;47868;51.326;6.550;2023-06-24T00:18:54;10.02;;;8.77;;
61915;SDS011;47868;51.326;6.550;2023-06-24T00:21:25;9.85;;;7.85;;
61915;SDS011;47868;51.326;6.550;2023-06-24T00:23:55;11.75;;;8.65;;
61915;SDS011;47868;51.326;6.550;2023-06-24T00:26:21;10.43;;;8.48;;
61915;SDS011;47868;51.326;6.550;2023-06-24T00:28:47;10.07;;;9.07;;
61915;SDS011;47868;51.326;6.550;2023-06-24T00:31:13;11.55;;;8.52;;
61915;SDS011;47868;51.326;6.550;2023-06-24T00:33:39;11.15;;;8.63;;
61915;SDS011;47868;51.326;6.550;2023-06-24T00:36:05;9.68;;;8.50;;
61915;SDS011;47868;51.326;6.550;2023-06-24T00:38:36;10.65;;;8.75;;
61915;SDS011;47868;51.326;6.550;2023-06-24T00:41:02;9.85;;;8.77;;
61915;SDS011;47868;51.326;6.550;2023-06-24T00:43:28;10.02;;;8.82;;
61915;SDS011;47868;51.326;6.550;2023-06-24T00:45:55;9.60;;;8.60;;
61915;SDS011;47868;51.326;6.550;2023-06-24T00:48:21;8.90;;;7.95;;
61915;SDS011;47868;51.326;6.550;2023-06-24T00:50:47;11.07;;;8.13;;
61915;SDS011;47868;51.326;6.550;2023-06-24T00:53:15;12.15;;;8.52;;
61915;SDS011;47868;51.326;6.550;2023-06-24T00:55:41;10.82;;;8.27;;
61915;SDS011;47868;51.326;6.550;2023-06-24T00:58:07;14.02;;;8.70;;
61915;SDS011;47868;51.326;6.550;2023-06-24T01:00:33;12.65;;;8.70;;
61915;SDS011;47868;51.326;6.550;2023-06-24T01:02:59;14.90;;;8.50;;
61915;SDS011;47868;51.326;6.550;2023-06-24T01:05:26;9.30;;;8.50;;
61915;SDS011;47868;51.326;6.550;2023-06-24T01:07:52;11.00;;;8.32;;
61915;SDS011;47868;51.326;6.550;2023-06-24T01:10:21;14.77;;;9.48;;
61915;SDS011;47868;51.326;6.550;2023-06-24T01:12:48;12.35;;;8.85;;
61915;SDS011;47868;51.326;6.550;2023-06-24T01:15:14;10.15;;;8.98;;
61915;SDS011;47868;51.326;6.550;2023-06-24T01:20:08;11.57;;;9.57;;
61915;SDS011;47868;51.326;6.550;2023-06-24T01:22:56;13.10;;;9.00;;
61915;SDS011;47868;51.326;6.550;2023-06-24T01:28:23;10.48;;;9.25;;
61915;SDS011;47868;51.326;6.550;2023-06-24T01:33:41;12.65;;;8.93;;
61915;SDS011;47868;51.326;6.550;2023-06-24T01:36:11;10.23;;;9.18;;
61915;SDS011;47868;51.326;6.550;2023-06-24T01:38:43;10.57;;;9.52;;
61915;SDS011;47868;51.326;6.550;2023-06-24T01:41:09;9.82;;;8.80;;
61915;SDS011;47868;51.326;6.550;2023-06-24T01:43:38;11.50;;;9.40;;
61915;SDS011;47868;51.326;6.550;2023-06-24T01:46:06;11.20;;;10.00;;
61915;SDS011;47868;51.326;6.550;2023-06-24T01:48:35;11.75;;;10.50;;
61915;SDS011;47868;51.326;6.550;2023-06-24T01:51:03;13.00;;;10.00;;
61915;SDS011;47868;51.326;6.550;2023-06-24T01:53:34;12.10;;;9.82;;
61915;SDS011;47868;51.326;6.550;2023-06-24T01:56:00;12.30;;;10.35;;
61915;SDS011;47868;51.326;6.550;2023-06-24T01:58:27;12.98;;;10.55;;
61915;SDS011;47868;51.326;6.550;2023-06-24T02:00:54;12.98;;;11.00;;
61915;SDS011;47868;51.326;6.550;2023-06-24T02:03:21;12.98;;;10.35;;
61915;SDS011;47868;51.326;6.550;2023-06-24T02:05:47;14.80;;;10.77;;
61915;SDS011;47868;51.326;6.550;2023-06-24T02:08:14;13.20;;;10.90;;
61915;SDS011;47868;51.326;6.550;2023-06-24T02:10:40;12.10;;;10.40;;
61915;SDS011;47868;51.326;6.550;2023-06-24T02:13:08;16.55;;;11.40;;
61915;SDS011;47868;51.326;6.550;2023-06-24T02:15:35;13.10;;;10.55;;
61915;SDS011;47868;51.326;6.550;2023-06-24T02:18:01;12.68;;;10.52;;
61915;SDS011;47868;51.326;6.550;2023-06-24T02:20:29;13.85;;;10.20;;
61915;SDS011;47868;51.326;6.550;2023-06-24T02:22:56;13.75;;;10.60;;
61915;SDS011;47868;51.326;6.550;2023-06-24T02:25:23;10.88;;;9.73;;
61915;SDS011;47868;51.326;6.550;2023-06-24T02:27:50;11.82;;;10.73;;
61915;SDS011;47868;51.326;6.550;2023-06-24T02:30:18;13.02;;;10.00;;
61915;SDS011;47868;51.326;6.550;2023-06-24T02:32:44;11.75;;;10.52;;
61915;SDS011;47868;51.326;6.550;2023-06-24T02:35:10;11.75;;;10.55;;
61915;SDS011;47868;51.326;6.550;2023-06-24T02:37:36;10.43;;;9.32;;
61915;SDS011;47868;51.326;6.550;2023-06-24T02:40:02;15.18;;;10.75;;
61915;SDS011;47868;51.326;6.550;2023-06-24T02:42:30;11.95;;;10.52;;
61915;SDS011;47868;51.326;6.550;2023-06-24T02:44:56;12.27;;;10.80;;
61915;SDS011;47868;51.326;6.550;2023-06-24T02:47:22;16.30;;;10.77;;
61915;SDS011;47868;51.326;6.550;2023-06-24T02:49:49;13.35;;;10.30;;
61915;SDS011;47868;51.326;6.550;2023-06-24T02:52:16;11.38;;;10.35;;
61915;SDS011;47868;51.326;6.550;2023-06-24T02:54:42;15.38;;;10.15;;
61915;SDS011;47868;51.326;6.550;2023-06-24T02:57:08;12.70;;;10.38;;
61915;SDS011;47868;51.326;6.550;2023-06-24T02:59:36;14.55;;;10.68;;
61915;SDS011;47868;51.326;6.550;2023-06-24T03:02:02;15.45;;;10.80;;
61915;SDS011;47868;51.326;6.550;2023-06-24T03:04:30;13.38;;;10.85;;
61915;SDS011;47868;51.326;6.550;2023-06-24T03:06:56;14.30;;;10.48;;
61915;SDS011;47868;51.326;6.550;2023-06-24T03:09:26;10.80;;;9.75;;
61915;SDS011;47868;51.326;6.550;2023-06-24T03:11:52;10.57;;;9.45;;
61915;SDS011;47868;51.326;6.550;2023-06-24T03:14:18;13.25;;;10.18;;
61915;SDS011;47868;51.326;6.550;2023-06-24T03:16:44;14.10;;;10.63;;
61915;SDS011;47868;51.326;6.550;2023-06-24T03:19:10;16.27;;;10.27;;
61915;SDS011;47868;51.326;6.550;2023-06-24T03:21:36;11.90;;;10.70;;
61915;SDS011;47868;51.326;6.550;2023-06-24T03:24:02;18.55;;;11.40;;
61915;SDS011;47868;51.326;6.550;2023-06-24T03:26:32;14.32;;;10.73;;
61915;SDS011;47868;51.326;6.550;2023-06-24T03:28:58;17.27;;;10.50;;
61915;SDS011;47868;51.326;6.550;2023-06-24T03:31:24;14.25;;;11.10;;
61915;SDS011;47868;51.326;6.550;2023-06-24T03:33:50;12.90;;;10.70;;
61915;SDS011;47868;51.326;6.550;2023-06-24T03:36:16;12.35;;;10.52;;
61915;SDS011;47868;51.326;6.550;2023-06-24T03:38:42;11.43;;;10.32;;
61915;SDS011;47868;51.326;6.550;2023-06-24T03:41:08;14.68;;;10.45;;
61915;SDS011;47868;51.326;6.550;2023-06-24T03:43:34;11.98;;;10.70;;
61915;SDS011;47868;51.326;6.550;2023-06-24T03:46:00;12.93;;;11.55;;
61915;SDS011;47868;51.326;6.550;2023-06-24T03:48:27;11.40;;;10.25;;
61915;SDS011;47868;51.326;6.550;2023-06-24T03:50:53;14.40;;;10.02;;
61915;SDS011;47868;51.326;6.550;2023-06-24T03:53:19;12.30;;;10.43;;
61915;SDS011;47868;51.326;6.550;2023-06-24T03:55:45;17.15;;;10.68;;
61915;SDS011;47868;51.326;6.550;2023-06-24T03:58:11;15.23;;;10.48;;
61915;SDS011;47868;51.326;6.550;2023-06-24T04:00:38;13.30;;;10.68;;
61915;SDS011;47868;51.326;6.550;2023-06-24T04:03:06;12.82;;;11.43;;
61915;SDS011;47868;51.326;6.550;2023-06-24T04:05:32;15.63;;;11.68;;
61915;SDS011;47868;51.326;6.550;2023-06-24T04:07:59;12.88;;;10.50;;
61915;SDS011;47868;51.326;6.550;2023-06-24T04:10:25;14.40;;;10.50;;
61915;SDS011;47868;51.326;6.550;2023-06-24T04:12:51;16.08;;;11.20;;
61915;SDS011;47868;51.326;6.550;2023-06-24T04:15:17;11.90;;;9.93;;
61915;SDS011;47868;51.326;6.550;2023-06-24T04:17:43;13.85;;;10.52;;
61915;SDS011;47868;51.326;6.550;2023-06-24T04:20:09;12.00;;;9.88;;
61915;SDS011;47868;51.326;6.550;2023-06-24T04:22:40;15.90;;;10.65;;
61915;SDS011;47868;51.326;6.550;2023-06-24T04:25:07;17.98;;;11.02;;
61915;SDS011;47868;51.326;6.550;2023-06-24T04:27:33;21.02;;;10.40;;
61915;SDS011;47868;51.326;6.550;2023-06-24T04:30:00;14.73;;;10.18;;
61915;SDS011;47868;51.326;6.550;2023-06-24T04:32:26;17.92;;;11.35;;
61915;SDS011;47868;51.326;6.550;2023-06-24T04:34:52;19.85;;;10.98;;
61915;SDS011;47868;51.326;6.550;2023-06-24T04:37:18;16.77;;;10.75;;
61915;SDS011;47868;51.326;6.550;2023-06-24T04:39:44;17.70;;;10.18;;
61915;SDS011;47868;51.326;6.550;2023-06-24T04:42:11;16.92;;;10.10;;
61915;SDS011;47868;51.326;6.550;2023-06-24T04:44:37;16.17;;;10.77;;
61915;SDS011;47868;51.326;6.550;2023-06-24T04:47:03;19.83;;;10.80;;
61915;SDS011;47868;51.326;6.550;2023-06-24T04:49:29;15.20;;;9.88;;
61915;SDS011;47868;51.326;6.550;2023-06-24T04:51:55;23.85;;;10.77;;
61915;SDS011;47868;51.326;6.550;2023-06-24T04:54:21;13.10;;;10.43;;
61915;SDS011;47868;51.326;6.550;2023-06-24T04:56:47;15.18;;;11.82;;
61915;SDS011;47868;51.326;6.550;2023-06-24T04:59:14;19.60;;;12.07;;
61915;SDS011;47868;51.326;6.550;2023-06-24T05:01:40;15.50;;;10.57;;
61915;SDS011;47868;51.326;6.550;2023-06-24T05:04:06;17.17;;;11.05;;
61915;SDS011;47868;51.326;6.550;2023-06-24T05:06:32;19.70;;;12.07;;
61915;SDS011;47868;51.326;6.550;2023-06-24T05:08:58;15.68;;;12.55;;
61915;SDS011;47868;51.326;6.550;2023-06-24T05:11:24;16.58;;;12.18;;
61915;SDS011;47868;51.326;6.550;2023-06-24T05:13:50;18.17;;;11.98;;
61915;SDS011;47868;51.326;6.550;2023-06-24T05:16:16;18.42;;;12.73;;
61915;SDS011;47868;51.326;6.550;2023-06-24T05:18:44;17.60;;;12.13;;
61915;SDS011;47868;51.326;6.550;2023-06-24T05:21:10;19.02;;;13.38;;
61915;SDS011;47868;51.326;6.550;2023-06-24T05:23:36;17.60;;;12.93;;
61915;SDS011;47868;51.326;6.550;2023-06-24T05:26:02;22.63;;;12.20;;
61915;SDS011;47868;51.326;6.550;2023-06-24T05:28:28;15.98;;;13.40;;
61915;SDS011;47868;51.326;6.550;2023-06-24T05:30:54;16.92;;;14.68;;
61915;SDS011;47868;51.326;6.550;2023-06-24T05:33:20;16.55;;;13.63;;
61915;SDS011;47868;51.326;6.550;2023-06-24T05:35:46;16.88;;;14.05;;
61915;SDS011;47868;51.326;6.550;2023-06-24T05:38:12;17.52;;;15.65;;
61915;SDS011;47868;51.326;6.550;2023-06-24T05:40:38;19.15;;;15.82;;
61915;SDS011;47868;51.326;6.550;2023-06-24T05:43:04;20.75;;;16.45;;
61915;SDS011;47868;51.326;6.550;2023-06-24T05:45:30;20.23;;;16.80;;
61915;SDS011;47868;51.326;6.550;2023-06-24T05:47:56;22.45;;;17.20;;
61915;SDS011;47868;51.326;6.550;2023-06-24T05:50:22;24.17;;;17.77;;
61915;SDS011;47868;51.326;6.550;2023-06-24T05:52:48;18.90;;;16.42;;
61915;SDS011;47868;51.326;6.550;2023-06-24T05:55:14;19.67;;;17.70;;
61915;SDS011;47868;51.326;6.550;2023-06-24T05:57:40;20.23;;;17.33;;
61915;SDS011;47868;51.326;6.550;2023-06-24T06:00:06;19.38;;;17.23;;
61915;SDS011;47868;51.326;6.550;2023-06-24T06:02:32;20.98;;;18.17;;
61915;SDS011;47868;51.326;6.550;2023-06-24T06:04:58;19.98;;;17.88;;
61915;SDS011;47868;51.326;6.550;2023-06-24T06:07:26;19.42;;;17.38;;
61915;SDS011;47868;51.326;6.550;2023-06-24T06:09:52;20.30;;;17.00;;
61915;SDS011;47868;51.326;6.550;2023-06-24T06:12:18;20.17;;;16.50;;
61915;SDS011;47868;51.326;6.550;2023-06-24T06:14:44;18.65;;;15.93;;
61915;SDS011;47868;51.326;6.550;2023-06-24T06:17:11;19.13;;;16.75;;
61915;SDS011;47868;51.326;6.550;2023-06-24T06:19:37;18.30;;;16.60;;
61915;SDS011;47868;51.326;6.550;2023-06-24T06:22:06;17.20;;;15.52;;
61915;SDS011;47868;51.326;6.550;2023-06-24T06:24:32;19.58;;;15.00;;
61915;SDS011;47868;51.326;6.550;2023-06-24T06:26:58;17.63;;;15.88;;
61915;SDS011;47868;51.326;6.550;2023-06-24T06:29:24;13.85;;;12.05;;
61915;SDS011;47868;51.326;6.550;2023-06-24T06:31:50;15.13;;;11.88;;
61915;SDS011;47868;51.326;6.550;2023-06-24T06:34:17;12.15;;;10.95;;
61915;SDS011;47868;51.326;6.550;2023-06-24T06:36:43;11.52;;;10.38;;
61915;SDS011;47868;51.326;6.550;2023-06-24T06:39:09;12.75;;;11.43;;
61915;SDS011;47868;51.326;6.550;2023-06-24T06:41:35;10.15;;;9.05;;
61915;SDS011;47868;51.326;6.550;2023-06-24T06:44:01;9.00;;;8.07;;
61915;SDS011;47868;51.326;6.550;2023-06-24T06:46:27;9.07;;;8.18;;
61915;SDS011;47868;51.326;6.550;2023-06-24T06:48:53;9.20;;;8.27;;
61915;SDS011;47868;51.326;6.550;2023-06-24T06:51:19;9.05;;;7.85;;
61915;SDS011;47868;51.326;6.550;2023-06-24T06:53:45;15.43;;;8.68;;
61915;SDS011;47868;51.326;6.550;2023-06-24T06:56:18;8.57;;;7.72;;
61915;SDS011;47868;51.326;6.550;2023-06-24T06:58:44;11.38;;;8.90;;
61915;SDS011;47868;51.326;6.550;2023-06-24T07:01:10;9.73;;;8.73;;
61915;SDS011;47868;51.326;6.550;2023-06-24T07:03:36;9.20;;;8.30;;
61915;SDS011;47868;51.326;6.550;2023-06-24T07:06:02;15.73;;;8.57;;
61915;SDS011;47868;51.326;6.550;2023-06-24T07:08:28;10.93;;;7.93;;
61915;SDS011;47868;51.326;6.550;2023-06-24T07:10:54;9.52;;;7.72;;
61915;SDS011;47868;51.326;6.550;2023-06-24T07:13:20;12.48;;;7.50;;
61915;SDS011;47868;51.326;6.550;2023-06-24T07:15:46;8.85;;;6.50;;
61915;SDS011;47868;51.326;6.550;2023-06-24T07:18:12;8.45;;;7.13;;
61915;SDS011;47868;51.326;6.550;2023-06-24T07:20:38;7.90;;;5.80;;
61915;SDS011;47868;51.326;6.550;2023-06-24T07:23:04;7.53;;;6.20;;
61915;SDS011;47868;51.326;6.550;2023-06-24T07:25:30;9.13;;;5.85;;
61915;SDS011;47868;51.326;6.550;2023-06-24T07:27:56;8.38;;;6.60;;
61915;SDS011;47868;51.326;6.550;2023-06-24T07:30:22;8.45;;;6.53;;
61915;SDS011;47868;51.326;6.550;2023-06-24T07:32:48;11.02;;;7.00;;
61915;SDS011;47868;51.326;6.550;2023-06-24T07:35:14;7.90;;;6.50;;
61915;SDS011;47868;51.326;6.550;2023-06-24T07:37:41;9.23;;;6.28;;
61915;SDS011;47868;51.326;6.550;2023-06-24T07:40:07;8.50;;;5.40;;
61915;SDS011;47868;51.326;6.550;2023-06-24T07:42:34;6.05;;;5.40;;
61915;SDS011;47868;51.326;6.550;2023-06-24T07:45:00;7.88;;;5.70;;
61915;SDS011;47868;51.326;6.550;2023-06-24T07:47:26;8.07;;;6.03;;
61915;SDS011;47868;51.326;6.550;2023-06-24T07:49:52;6.65;;;5.95;;
61915;SDS011;47868;51.326;6.550;2023-06-24T07:52:18;7.63;;;6.53;;
61915;SDS011;47868;51.326;6.550;2023-06-24T07:54:44;7.97;;;6.10;;
61915;SDS011;47868;51.326;6.550;2023-06-24T07:57:10;7.32;;;5.65;;
61915;SDS011;47868;51.326;6.550;2023-06-24T07:59:36;6.20;;;5.10;;
61915;SDS011;47868;51.326;6.550;2023-06-24T08:02:02;7.25;;;5.53;;
61915;SDS011;47868;51.326;6.550;2023-06-24T08:04:28;6.55;;;5.32;;
61915;SDS011;47868;51.326;6.550;2023-06-24T08:06:54;8.25;;;6.55;;
61915;SDS011;47868;51.326;6.550;2023-06-24T08:09:20;8.35;;;6.28;;
61915;SDS011;47868;51.326;6.550;2023-06-24T08:11:46;8.45;;;6.70;;
61915;SDS011;47868;51.326;6.550;2023-06-24T08:14:12;8.93;;;7.43;;
61915;SDS011;47868;51.326;6.550;2023-06-24T08:16:38;8.18;;;6.78;;
61915;SDS011;47868;51.326;6.550;2023-06-24T08:19:04;8.77;;;7.88;;
61915;SDS011;47868;51.326;6.550;2023-06-24T08:21:30;9.93;;;7.15;;
61915;SDS011;47868;51.326;6.550;2023-06-24T08:23:57;11.07;;;9.13;;
61915;SDS011;47868;51.326;6.550;2023-06-24T08:26:23;11.23;;;9.40;;
61915;SDS011;47868;51.326;6.550;2023-06-24T08:28:49;12.88;;;8.73;;
61915;SDS011;47868;51.326;6.550;2023-06-24T08:31:15;10.55;;;8.55;;
61915;SDS011;47868;51.326;6.550;2023-06-24T08:33:43;10.05;;;8.88;;
61915;SDS011;47868;51.326;6.550;2023-06-24T08:36:10;11.35;;;9.20;;
61915;SDS011;47868;51.326;6.550;2023-06-24T08:38:36;11.50;;;9.02;;
61915;SDS011;47868;51.326;6.550;2023-06-24T08:41:02;14.00;;;10.07;;
61915;SDS011;47868;51.326;6.550;2023-06-24T08:43:28;15.90;;;9.85;;
61915;SDS011;47868;51.326;6.550;2023-06-24T08:45:54;13.65;;;11.32;;
61915;SDS011;47868;51.326;6.550;2023-06-24T08:48:20;16.73;;;12.00;;
61915;SDS011;47868;51.326;6.550;2023-06-24T08:50:49;14.55;;;11.57;;
61915;SDS011;47868;51.326;6.550;2023-06-24T08:53:16;11.45;;;10.13;;
61915;SDS011;47868;51.326;6.550;2023-06-24T08:55:44;14.88;;;9.43;;
61915;SDS011;47868;51.326;6.550;2023-06-24T08:58:11;12.05;;;9.35;;
61915;SDS011;47868;51.326;6.550;2023-06-24T09:00:37;10.90;;;8.07;;
61915;SDS011;47868;51.326;6.550;2023-06-24T09:03:03;10.23;;;8.25;;
61915;SDS011;47868;51.326;6.550;2023-06-24T09:05:29;9.02;;;7.75;;
61915;SDS011;47868;51.326;6.550;2023-06-24T09:07:55;13.73;;;8.32;;
61915;SDS011;47868;51.326;6.550;2023-06-24T09:12:57;9.57;;;7.18;;
61915;SDS011;47868;51.326;6.550;2023-06-24T09:15:23;9.35;;;6.80;;
61915;SDS011;47868;51.326;6.550;2023-06-24T09:17:49;11.00;;;7.75;;
61915;SDS011;47868;51.326;6.550;2023-06-24T09:20:15;9.30;;;6.68;;
61915;SDS011;47868;51.326;6.550;2023-06-24T09:22:45;7.97;;;7.18;;
61915;SDS011;47868;51.326;6.550;2023-06-24T09:25:16;9.57;;;7.80;;
61915;SDS011;47868;51.326;6.550;2023-06-24T09:27:46;7.50;;;6.47;;
61915;SDS011;47868;51.326;6.550;2023-06-24T09:30:16;13.80;;;6.80;;
61915;SDS011;47868;51.326;6.550;2023-06-24T09:32:44;8.25;;;6.18;;
61915;SDS011;47868;51.326;6.550;2023-06-24T09:35:10;7.70;;;6.45;;
61915;SDS011;47868;51.326;6.550;2023-06-24T09:37:37;9.15;;;7.97;;
61915;SDS011;47868;51.326;6.550;2023-06-24T09:40:05;11.52;;;6.35;;
61915;SDS011;47868;51.326;6.550;2023-06-24T09:42:33;7.55;;;6.00;;
61915;SDS011;47868;51.326;6.550;2023-06-24T09:45:03;6.35;;;5.75;;
61915;SDS011;47868;51.326;6.550;2023-06-24T09:47:30;7.90;;;5.50;;
61915;SDS011;47868;51.326;6.550;2023-06-24T09:49:56;8.77;;;5.85;;
61915;SDS011;47868;51.326;6.550;2023-06-24T09:52:22;6.68;;;5.68;;
61915;SDS011;47868;51.326;6.550;2023-06-24T09:54:50;10.50;;;6.30;;
61915;SDS011;47868;51.326;6.550;2023-06-24T09:57:17;9.07;;;6.38;;
61915;SDS011;47868;51.326;6.550;2023-06-24T09:59:46;10.02;;;7.43;;
61915;SDS011;47868;51.326;6.550;2023-06-24T10:02:14;7.07;;;6.38;;
61915;SDS011;47868;51.326;6.550;2023-06-24T10:04:40;13.80;;;5.97;;
61915;SDS011;47868;51.326;6.550;2023-06-24T10:07:07;6.30;;;4.97;;
61915;SDS011;47868;51.326;6.550;2023-06-24T10:09:33;7.03;;;5.88;;
61915;SDS011;47868;51.326;6.550;2023-06-24T10:11:59;7.40;;;5.55;;
61915;SDS011;47868;51.326;6.550;2023-06-24T10:14:26;8.73;;;5.88;;
61915;SDS011;47868;51.326;6.550;2023-06-24T10:17:00;6.47;;;5.78;;
61915;SDS011;47868;51.326;6.550;2023-06-24T10:19:26;7.53;;;6.75;;
61915;SDS011;47868;51.326;6.550;2023-06-24T10:21:53;7.47;;;6.10;;
61915;SDS011;47868;51.326;6.550;2023-06-24T10:24:29;8.85;;;6.30;;
61915;SDS011;47868;51.326;6.550;2023-06-24T10:27:00;7.53;;;5.32;;
61915;SDS011;47868;51.326;6.550;2023-06-24T10:29:30;5.85;;;5.20;;
61915;SDS011;47868;51.326;6.550;2023-06-24T10:31:56;7.85;;;4.93;;
61915;SDS011;47868;51.326;6.550;2023-06-24T10:34:30;7.35;;;4.97;;
61915;SDS011;47868;51.326;6.550;2023-06-24T10:37:01;6.13;;;4.80;;
61915;SDS011;47868;51.326;6.550;2023-06-24T10:44:47;5.55;;;4.95;;
61915;SDS011;47868;51.326;6.550;2023-06-24T10:47:13;7.78;;;4.28;;
61915;SDS011;47868;51.326;6.550;2023-06-24T10:49:39;6.05;;;4.22;;
61915;SDS011;47868;51.326;6.550;2023-06-24T10:52:09;4.20;;;3.35;;
61915;SDS011;47868;51.326;6.550;2023-06-24T10:54:38;4.22;;;3.42;;
61915;SDS011;47868;51.326;6.550;2023-06-24T10:57:05;6.47;;;4.07;;
61915;SDS011;47868;51.326;6.550;2023-06-24T10:59:35;5.70;;;3.80;;
61915;SDS011;47868;51.326;6.550;2023-06-24T11:02:01;4.82;;;4.32;;
61915;SDS011;47868;51.326;6.550;2023-06-24T11:04:27;5.97;;;3.90;;
61915;SDS011;47868;51.326;6.550;2023-06-24T11:07:00;5.03;;;3.58;;
61915;SDS011;47868;51.326;6.550;2023-06-24T11:09:27;5.85;;;3.80;;
61915;SDS011;47868;51.326;6.550;2023-06-24T11:11:53;4.25;;;3.55;;
61915;SDS011;47868;51.326;6.550;2023-06-24T11:14:19;4.13;;;3.33;;
61915;SDS011;47868;51.326;6.550;2023-06-24T11:16:45;4.38;;;3.60;;
61915;SDS011;47868;51.326;6.550;2023-06-24T11:19:12;6.40;;;3.33;;
61915;SDS011;47868;51.326;6.550;2023-06-24T11:21:38;5.47;;;3.40;;
61915;SDS011;47868;51.326;6.550;2023-06-24T11:24:04;3.22;;;2.72;;
61915;SDS011;47868;51.326;6.550;2023-06-24T11:26:31;3.78;;;2.90;;
61915;SDS011;47868;51.326;6.550;2023-06-24T11:28:58;5.72;;;3.00;;
61915;SDS011;47868;51.326;6.550;2023-06-24T11:31:27;4.32;;;3.30;;
61915;SDS011;47868;51.326;6.550;2023-06-24T11:33:53;2.95;;;2.75;;
61915;SDS011;47868;51.326;6.550;2023-06-24T11:36:19;3.72;;;2.72;;
61915;SDS011;47868;51.326;6.550;2023-06-24T11:38:46;3.38;;;3.08;;
61915;SDS011;47868;51.326;6.550;2023-06-24T11:41:12;2.95;;;2.75;;
61915;SDS011;47868;51.326;6.550;2023-06-24T11:43:45;3.03;;;2.60;;
61915;SDS011;47868;51.326;6.550;2023-06-24T11:46:20;2.55;;;2.35;;
61915;SDS011;47868;51.326;6.550;2023-06-24T11:48:46;2.55;;;2.13;;
61915;SDS011;47868;51.326;6.550;2023-06-24T11:51:12;5.10;;;2.35;;
61915;SDS011;47868;51.326;6.550;2023-06-24T11:53:42;2.85;;;2.65;;
61915;SDS011;47868;51.326;6.550;2023-06-24T11:56:10;3.38;;;2.58;;
61915;SDS011;47868;51.326;6.550;2023-06-24T11:58:36;2.58;;;2.28;;
61915;SDS011;47868;51.326;6.550;2023-06-24T12:01:03;2.08;;;1.98;;
61915;SDS011;47868;51.326;6.550;2023-06-24T12:03:29;2.60;;;2.30;;
61915;SDS011;47868;51.326;6.550;2023-06-24T12:05:57;5.03;;;2.45;;
61915;SDS011;47868;51.326;6.550;2023-06-24T12:08:23;2.33;;;2.13;;
61915;SDS011;47868;51.326;6.550;2023-06-24T12:10:49;2.63;;;2.30;;
61915;SDS011;47868;51.326;6.550;2023-06-24T12:13:15;5.35;;;2.60;;
61915;SDS011;47868;51.326;6.550;2023-06-24T12:15:41;2.30;;;2.10;;
61915;SDS011;47868;51.326;6.550;2023-06-24T12:18:07;6.00;;;2.45;;
61915;SDS011;47868;51.326;6.550;2023-06-24T12:20:33;4.25;;;2.00;;
61915;SDS011;47868;51.326;6.550;2023-06-24T12:23:01;2.35;;;2.15;;
61915;SDS011;47868;51.326;6.550;2023-06-24T12:25:30;2.55;;;2.35;;
61915;SDS011;47868;51.326;6.550;2023-06-24T12:27:56;2.92;;;2.60;;
61915;SDS011;47868;51.326;6.550;2023-06-24T12:30:24;2.47;;;2.28;;
61915;SDS011;47868;51.326;6.550;2023-06-24T12:32:50;4.28;;;2.38;;
61915;SDS011;47868;51.326;6.550;2023-06-24T12:35:17;5.05;;;2.90;;
61915;SDS011;47868;51.326;6.550;2023-06-24T12:37:43;2.25;;;2.00;;
61915;SDS011;47868;51.326;6.550;2023-06-24T12:40:10;2.65;;;2.40;;
61915;SDS011;47868;51.326;6.550;2023-06-24T12:42:36;2.67;;;2.28;;
61915;SDS011;47868;51.326;6.550;2023-06-24T12:45:02;4.50;;;2.38;;
61915;SDS011;47868;51.326;6.550;2023-06-24T12:47:28;2.20;;;2.00;;
61915;SDS011;47868;51.326;6.550;2023-06-24T12:49:55;2.53;;;2.33;;
61915;SDS011;47868;51.326;6.550;2023-06-24T12:52:21;2.65;;;2.17;;
61915;SDS011;47868;51.326;6.550;2023-06-24T12:54:47;2.50;;;2.40;;
61915;SDS011;47868;51.326;6.550;2023-06-24T12:57:14;2.40;;;2.20;;
61915;SDS011;47868;51.326;6.550;2023-06-24T12:59:40;4.55;;;2.38;;
61915;SDS011;47868;51.326;6.550;2023-06-24T13:02:06;2.20;;;2.10;;
61915;SDS011;47868;51.326;6.550;2023-06-24T13:04:32;2.90;;;2.50;;
61915;SDS011;47868;51.326;6.550;2023-06-24T13:06:59;2.83;;;2.30;;
61915;SDS011;47868;51.326;6.550;2023-06-24T13:09:25;2.90;;;2.55;;
61915;SDS011;47868;51.326;6.550;2023-06-24T13:11:51;2.85;;;2.28;;
61915;SDS011;47868;51.326;6.550;2023-06-24T13:14:17;3.40;;;2.75;;
61915;SDS011;47868;51.326;6.550;2023-06-24T13:16:43;2.28;;;2.08;;
61915;SDS011;47868;51.326;6.550;2023-06-24T13:19:09;4.20;;;2.30;;
61915;SDS011;47868;51.326;6.550;2023-06-24T13:21:35;4.70;;;2.53;;
61915;SDS011;47868;51.326;6.550;2023-06-24T13:24:01;2.65;;;2.45;;
61915;SDS011;47868;51.326;6.550;2023-06-24T13:26:27;2.40;;;2.22;;
61915;SDS011;47868;51.326;6.550;2023-06-24T13:28:53;3.38;;;2.65;;
61915;SDS011;47868;51.326;6.550;2023-06-24T13:31:20;2.97;;;2.55;;
61915;SDS011;47868;51.326;6.550;2023-06-24T13:33:46;2.85;;;2.50;;
61915;SDS011;47868;51.326;6.550;2023-06-24T13:36:27;2.83;;;2.50;;
61915;SDS011;47868;51.326;6.550;2023-06-24T13:38:53;3.03;;;2.60;;
61915;SDS011;47868;51.326;6.550;2023-06-24T13:41:19;4.53;;;2.28;;
61915;SDS011;47868;51.326;6.550;2023-06-24T13:43:45;6.22;;;2.72;;
61915;SDS011;47868;51.326;6.550;2023-06-24T13:46:12;2.63;;;2.42;;
61915;SDS011;47868;51.326;6.550;2023-06-24T13:48:38;3.30;;;2.33;;
61915;SDS011;47868;51.326;6.550;2023-06-24T13:51:04;2.08;;;1.88;;
61915;SDS011;47868;51.326;6.550;2023-06-24T13:53:31;2.60;;;2.40;;
61915;SDS011;47868;51.326;6.550;2023-06-24T13:55:57;1.95;;;1.85;;
61915;SDS011;47868;51.326;6.550;2023-06-24T13:58:23;2.47;;;2.28;;
61915;SDS011;47868;51.326;6.550;2023-06-24T14:00:49;2.35;;;2.15;;
61915;SDS011;47868;51.326;6.550;2023-06-24T14:03:16;2.00;;;1.88;;
61915;SDS011;47868;51.326;6.550;2023-06-24T14:05:42;2.40;;;2.20;;
61915;SDS011;47868;51.326;6.550;2023-06-24T14:08:08;2.30;;;2.10;;
61915;SDS011;47868;51.326;6.550;2023-06-24T14:10:34;3.35;;;2.20;;
61915;SDS011;47868;51.326;6.550;2023-06-24T14:13:00;2.17;;;2.05;;
61915;SDS011;47868;51.326;6.550;2023-06-24T14:15:26;2.10;;;1.88;;
61915;SDS011;47868;51.326;6.550;2023-06-24T14:17:52;3.88;;;2.10;;
61915;SDS011;47868;51.326;6.550;2023-06-24T14:20:18;3.17;;;2.10;;
61915;SDS011;47868;51.326;6.550;2023-06-24T14:22:44;2.05;;;1.95;;
61915;SDS011;47868;51.326;6.550;2023-06-24T14:25:10;4.70;;;2.20;;
61915;SDS011;47868;51.326;6.550;2023-06-24T14:27:36;3.55;;;2.53;;
61915;SDS011;47868;51.326;6.550;2023-06-24T14:30:03;2.95;;;1.95;;
61915;SDS011;47868;51.326;6.550;2023-06-24T14:32:29;2.00;;;1.90;;
61915;SDS011;47868;51.326;6.550;2023-06-24T14:34:55;2.25;;;2.03;;
61915;SDS011;47868;51.326;6.550;2023-06-24T14:37:22;2.20;;;2.00;;
61915;SDS011;47868;51.326;6.550;2023-06-24T14:39:48;3.10;;;2.40;;
61915;SDS011;47868;51.326;6.550;2023-06-24T14:42:14;3.50;;;2.08;;
61915;SDS011;47868;51.326;6.550;2023-06-24T14:44:40;2.08;;;1.88;;
61915;SDS011;47868;51.326;6.550;2023-06-24T14:47:06;4.43;;;2.05;;
61915;SDS011;47868;51.326;6.550;2023-06-24T14:49:32;2.33;;;2.13;;